createdAt,value
2023-05-23T00:01:55.171Z,9.83
2023-05-23T00:04:29.341Z,10.10
2023-05-23T00:06:59.072Z,9.63
2023-05-23T00:09:29.478Z,9.70
2023-05-23T00:12:01.728Z,10.20
2023-05-23T00:14:37.201Z,9.77
2023-05-23T00:17:08.517Z,10.10
2023-05-23T00:19:39.511Z,9.67
2023-05-23T00:22:09.714Z,9.93
2023-05-23T00:24:38.910Z,9.43
2023-05-23T00:27:12.573Z,9.83
2023-05-23T00:29:47.591Z,9.73
2023-05-23T00:32:19.411Z,9.17
2023-05-23T00:34:53.271Z,9.80
2023-05-23T00:37:26.180Z,9.43
2023-05-23T00:39:57.436Z,9.17
2023-05-23T00:42:27.497Z,9.47
2023-05-23T00:44:58.738Z,9.83
2023-05-23T00:47:28.001Z,9.90
2023-05-23T00:50:01.614Z,10.00
2023-05-23T00:52:33.623Z,10.13
2023-05-23T00:55:05.170Z,10.60
2023-05-23T00:57:45.887Z,10.10
2023-05-23T01:00:17.896Z,9.63
2023-05-23T01:02:54.007Z,10.60
2023-05-23T01:05:28.160Z,10.10
2023-05-23T01:07:59.394Z,9.90
2023-05-23T01:10:42.460Z,10.20
2023-05-23T01:13:50.040Z,10.33
2023-05-23T01:16:32.438Z,9.97
2023-05-23T01:19:20.016Z,9.77
2023-05-23T01:21:56.848Z,10.47
2023-05-23T01:25:25.124Z,10.30
2023-05-23T01:28:18.509Z,10.40
2023-05-23T01:30:57.992Z,9.73
2023-05-23T01:33:30.863Z,10.03
2023-05-23T01:36:04.835Z,10.50
2023-05-23T01:38:35.539Z,10.27
2023-05-23T01:41:07.066Z,9.90
2023-05-23T01:43:37.738Z,9.53
2023-05-23T01:46:07.658Z,10.07
2023-05-23T01:48:38.732Z,9.93
2023-05-23T01:51:09.787Z,9.60
2023-05-23T01:53:40.272Z,9.63
2023-05-23T01:56:08.857Z,10.03
2023-05-23T01:58:38.410Z,10.17
2023-05-23T02:01:05.553Z,9.13
2023-05-23T02:03:35.803Z,9.53
2023-05-23T02:06:04.427Z,10.20
2023-05-23T02:08:35.438Z,9.90
2023-05-23T02:11:11.204Z,9.77
2023-05-23T02:14:09.631Z,8.83
2023-05-23T02:16:40.608Z,9.53
2023-05-23T02:19:09.975Z,9.73
2023-05-23T02:21:41.368Z,10.27
2023-05-23T02:24:12.717Z,9.97
2023-05-23T02:26:44.168Z,10.10
2023-05-23T02:29:16.638Z,10.37
2023-05-23T02:31:45.673Z,10.10
2023-05-23T02:34:16.050Z,10.07
2023-05-23T02:36:48.734Z,9.97
2023-05-23T02:39:19.496Z,10.10
2023-05-23T02:41:51.700Z,9.93
2023-05-23T02:44:21.803Z,9.63
2023-05-23T02:46:53.971Z,10.07
2023-05-23T02:49:25.745Z,9.53
2023-05-23T02:51:56.287Z,9.43
2023-05-23T02:54:27.342Z,9.93
2023-05-23T02:56:58.975Z,9.73
2023-05-23T02:59:28.210Z,9.73
2023-05-23T03:01:58.645Z,9.63
2023-05-23T03:04:27.983Z,10.23
2023-05-23T03:06:59.618Z,10.00
2023-05-23T03:09:30.667Z,10.40
2023-05-23T03:12:00.517Z,9.83
2023-05-23T03:14:35.872Z,9.13
2023-05-23T03:17:05.766Z,9.97
2023-05-23T03:19:36.731Z,10.30
2023-05-23T03:22:06.145Z,9.80
2023-05-23T03:24:35.348Z,9.90
2023-05-23T03:27:08.277Z,10.00
2023-05-23T03:29:40.168Z,10.40
2023-05-23T03:32:12.073Z,9.83
2023-05-23T03:34:42.294Z,9.57
2023-05-23T03:37:16.314Z,9.83
2023-05-23T03:39:49.345Z,9.40
2023-05-23T03:42:18.374Z,9.53
2023-05-23T03:44:50.781Z,10.20
2023-05-23T03:47:23.213Z,9.77
2023-05-23T03:49:59.637Z,10.00
2023-05-23T03:52:30.525Z,9.73
2023-05-23T03:54:58.995Z,10.30
2023-05-23T03:57:31.126Z,10.07
2023-05-23T04:00:01.947Z,9.37
2023-05-23T04:02:35.285Z,10.23
2023-05-23T04:05:06.458Z,10.30
2023-05-23T04:07:39.527Z,10.27
2023-05-23T04:10:15.967Z,9.83
2023-05-23T04:12:47.395Z,9.83
2023-05-23T04:15:24.982Z,10.20
2023-05-23T04:17:58.639Z,10.27
2023-05-23T04:20:32.411Z,9.80
2023-05-23T04:23:03.813Z,10.20
2023-05-23T04:25:37.756Z,10.27
2023-05-23T04:28:15.203Z,10.37
2023-05-23T04:30:44.731Z,11.27
2023-05-23T04:33:16.270Z,11.03
2023-05-23T04:35:58.758Z,11.23
2023-05-23T04:38:31.814Z,10.30
2023-05-23T04:41:03.330Z,10.20
2023-05-23T04:43:57.543Z,10.30
2023-05-23T04:46:39.472Z,9.53
2023-05-23T04:49:31.400Z,10.47
2023-05-23T04:52:07.717Z,11.17
2023-05-23T04:54:48.075Z,10.63
2023-05-23T04:57:18.646Z,10.63
2023-05-23T04:59:47.174Z,10.67
2023-05-23T05:02:19.162Z,10.40
2023-05-23T05:04:50.121Z,10.67
2023-05-23T05:07:20.444Z,10.37
2023-05-23T05:09:52.443Z,10.60
2023-05-23T05:12:23.535Z,10.63
2023-05-23T05:14:56.803Z,10.77
2023-05-23T05:17:34.842Z,10.67
2023-05-23T05:20:08.911Z,10.87
2023-05-23T05:22:46.061Z,10.27
2023-05-23T05:25:22.356Z,10.47
2023-05-23T05:27:52.298Z,11.03
2023-05-23T05:30:26.016Z,10.37
2023-05-23T05:33:01.531Z,9.97
2023-05-23T05:35:32.977Z,10.50
2023-05-23T05:38:07.910Z,9.83
2023-05-23T05:40:38.606Z,10.17
2023-05-23T05:43:09.547Z,10.83
2023-05-23T05:45:43.283Z,10.77
2023-05-23T05:48:14.853Z,14.17
2023-05-23T05:50:46.576Z,12.53
2023-05-23T05:53:19.465Z,13.17
2023-05-23T05:55:50.268Z,11.90
2023-05-23T05:58:23.539Z,11.57
2023-05-23T06:01:01.132Z,10.80
2023-05-23T06:03:30.036Z,10.40
2023-05-23T06:06:00.872Z,10.30
2023-05-23T06:08:29.277Z,10.23
2023-05-23T06:11:00.388Z,10.93
2023-05-23T06:13:30.891Z,10.70
2023-05-23T06:16:15.403Z,10.27
2023-05-23T06:18:45.376Z,10.50
2023-05-23T06:21:16.002Z,10.30
2023-05-23T06:23:45.895Z,9.47
2023-05-23T06:26:15.305Z,9.40
2023-05-23T06:28:46.420Z,9.63
2023-05-23T06:31:16.915Z,8.80
2023-05-23T06:33:50.228Z,9.43
2023-05-23T06:36:25.167Z,9.33
2023-05-23T06:38:55.958Z,9.27
2023-05-23T06:41:24.173Z,9.27
2023-05-23T06:43:55.369Z,9.40
2023-05-23T06:46:28.561Z,8.80
2023-05-23T06:49:13.668Z,8.53
2023-05-23T06:51:48.213Z,8.50
2023-05-23T06:54:19.628Z,8.40
2023-05-23T06:56:50.893Z,8.70
2023-05-23T06:59:20.502Z,8.17
2023-05-23T07:01:51.547Z,7.80
2023-05-23T07:04:22.490Z,7.97
2023-05-23T07:06:54.927Z,8.10
2023-05-23T07:09:26.858Z,8.03
2023-05-23T07:12:09.560Z,8.73
2023-05-23T07:14:50.397Z,7.93
2023-05-23T07:17:22.493Z,7.53
2023-05-23T07:19:52.102Z,7.77
2023-05-23T07:22:21.517Z,7.97
2023-05-23T07:24:53.838Z,7.63
2023-05-23T07:27:29.297Z,7.60
2023-05-23T07:30:00.212Z,7.33
2023-05-23T07:32:32.563Z,7.57
2023-05-23T07:35:03.723Z,8.10
2023-05-23T07:37:33.573Z,8.00
2023-05-23T07:40:07.208Z,7.53
2023-05-23T07:42:37.336Z,8.27
2023-05-23T07:45:09.060Z,8.10
2023-05-23T07:47:42.960Z,8.07
2023-05-23T07:50:14.121Z,7.80
2023-05-23T07:52:55.208Z,7.73
2023-05-23T07:55:33.218Z,8.03
2023-05-23T07:58:09.163Z,8.30
2023-05-23T08:03:48.336Z,8.00
2023-05-23T08:06:28.612Z,8.27
2023-05-23T08:09:02.445Z,8.07
2023-05-23T08:11:36.119Z,7.77
2023-05-23T08:14:12.478Z,8.40
2023-05-23T08:16:48.634Z,7.90
2023-05-23T08:19:24.552Z,8.77
2023-05-23T08:21:58.687Z,7.80
2023-05-23T08:24:33.337Z,8.17
2023-05-23T08:27:07.753Z,7.83
2023-05-23T08:29:40.084Z,8.20
2023-05-23T08:32:11.367Z,8.13
2023-05-23T08:34:42.804Z,8.00
2023-05-23T08:37:09.950Z,8.33
2023-05-23T08:39:42.060Z,8.00
2023-05-23T08:42:36.342Z,8.43
2023-05-23T08:45:12.098Z,7.97
2023-05-23T08:47:45.468Z,8.07
2023-05-23T08:50:24.496Z,8.77
2023-05-23T08:53:01.498Z,8.53
2023-05-23T08:55:32.954Z,8.40
2023-05-23T08:58:06.656Z,8.40
2023-05-23T09:00:50.041Z,8.50
2023-05-23T09:03:25.982Z,8.63
2023-05-23T09:06:23.770Z,8.20
2023-05-23T09:08:55.193Z,8.87
2023-05-23T09:11:26.992Z,8.73
2023-05-23T09:14:03.888Z,8.63
2023-05-23T09:16:35.099Z,8.70
2023-05-23T09:19:17.703Z,8.90
2023-05-23T09:22:10.680Z,8.70
2023-05-23T09:24:55.503Z,8.90
2023-05-23T09:27:28.255Z,9.17
2023-05-23T09:30:07.657Z,9.03
2023-05-23T09:32:38.200Z,9.03
2023-05-23T09:35:13.361Z,9.00
2023-05-23T09:37:48.244Z,8.70
2023-05-23T09:40:18.405Z,8.90
2023-05-23T09:42:57.577Z,8.97
2023-05-23T09:45:33.632Z,8.83
2023-05-23T09:48:04.775Z,8.40
2023-05-23T09:50:38.090Z,9.43
2023-05-23T09:53:07.648Z,9.10
2023-05-23T09:55:39.884Z,8.83
2023-05-23T09:58:12.224Z,9.20
2023-05-23T10:00:43.519Z,8.70
2023-05-23T10:03:13.245Z,9.07
2023-05-23T10:05:49.325Z,8.73
2023-05-23T10:08:43.935Z,9.17
2023-05-23T10:11:39.575Z,9.00
2023-05-23T10:14:18.613Z,8.87
2023-05-23T10:17:11.003Z,9.00
2023-05-23T10:19:48.191Z,9.47
2023-05-23T10:22:17.351Z,9.60
2023-05-23T10:24:46.180Z,9.37
2023-05-23T10:27:16.239Z,9.37
2023-05-23T10:29:47.780Z,9.57
2023-05-23T10:32:18.521Z,10.00
2023-05-23T10:35:14.002Z,9.63
2023-05-23T10:38:11.532Z,9.80
2023-05-23T10:41:20.586Z,9.50
2023-05-23T10:44:15.664Z,10.13
2023-05-23T10:47:06.607Z,9.33
2023-05-23T10:49:45.969Z,9.73
2023-05-23T10:52:24.594Z,9.87
2023-05-23T10:54:56.295Z,10.20
2023-05-23T10:57:31.356Z,10.20
2023-05-23T11:00:03.315Z,9.50
2023-05-23T11:02:31.521Z,9.67
2023-05-23T11:05:42.185Z,9.70
2023-05-23T11:08:27.281Z,8.83
2023-05-23T11:11:21.725Z,9.80
2023-05-23T11:14:16.733Z,8.97
2023-05-23T11:16:49.646Z,7.60
2023-05-23T11:19:31.009Z,7.37
2023-05-23T11:22:02.916Z,7.00
2023-05-23T11:24:55.924Z,6.70
2023-05-23T11:27:41.793Z,6.60
2023-05-23T11:30:32.727Z,6.50
2023-05-23T11:33:21.828Z,7.20
2023-05-23T11:35:56.150Z,7.60
2023-05-23T11:38:25.037Z,8.03
2023-05-23T11:40:52.300Z,8.50
2023-05-23T11:43:21.971Z,8.20
2023-05-23T11:45:51.139Z,8.40
2023-05-23T11:48:20.880Z,8.23
2023-05-23T11:50:55.598Z,8.63
2023-05-23T11:53:26.031Z,8.77
2023-05-23T11:56:16.248Z,8.93
2023-05-23T11:58:48.299Z,8.27
2023-05-23T12:01:19.095Z,8.63
2023-05-23T12:03:53.945Z,8.30
2023-05-23T12:06:27.232Z,8.43
2023-05-23T12:09:03.366Z,8.03
2023-05-23T12:11:42.863Z,8.03
2023-05-23T12:14:18.959Z,8.10
2023-05-23T12:16:48.352Z,8.33
2023-05-23T12:19:20.358Z,8.80
2023-05-23T12:21:51.423Z,8.37
2023-05-23T12:24:20.523Z,8.40
2023-05-23T12:26:59.695Z,8.30
2023-05-23T12:29:38.272Z,9.27
2023-05-23T12:32:12.138Z,8.57
2023-05-23T12:34:46.181Z,8.10
2023-05-23T12:37:20.199Z,8.40
2023-05-23T12:39:50.457Z,8.53
2023-05-23T12:42:18.005Z,8.77
2023-05-23T12:45:01.153Z,8.53
2023-05-23T12:47:34.865Z,8.43
2023-05-23T12:50:07.407Z,8.80
2023-05-23T12:52:39.717Z,8.33
2023-05-23T12:55:13.204Z,8.37
2023-05-23T12:57:48.200Z,8.70
2023-05-23T13:00:28.558Z,8.93
2023-05-23T13:03:00.378Z,9.30
2023-05-23T13:05:31.070Z,9.00
2023-05-23T13:08:04.568Z,8.53
2023-05-23T13:10:40.302Z,8.30
2023-05-23T13:13:16.383Z,9.17
2023-05-23T13:15:50.628Z,8.87
2023-05-23T13:18:26.821Z,9.20
2023-05-23T13:20:57.618Z,9.27
2023-05-23T13:23:33.112Z,9.20
2023-05-23T13:26:04.082Z,9.23
2023-05-23T13:28:39.979Z,9.17
2023-05-23T13:31:15.624Z,9.77
2023-05-23T13:33:47.147Z,10.10
2023-05-23T13:36:18.781Z,10.10
2023-05-23T13:38:53.202Z,10.17
2023-05-23T13:41:24.701Z,10.10
2023-05-23T13:43:54.587Z,9.60
2023-05-23T13:46:27.428Z,9.00
2023-05-23T13:48:59.697Z,8.70
2023-05-23T13:51:31.046Z,8.80
2023-05-23T13:54:02.733Z,8.30
2023-05-23T13:56:34.355Z,7.83
2023-05-23T13:59:04.569Z,8.13
2023-05-23T14:01:35.283Z,7.60
2023-05-23T14:04:06.969Z,7.90
2023-05-23T14:06:37.543Z,7.67
2023-05-23T14:09:11.285Z,8.03
2023-05-23T14:11:42.506Z,8.63
2023-05-23T14:14:09.665Z,9.10
2023-05-23T14:16:39.529Z,8.40
2023-05-23T14:19:10.482Z,6.93
2023-05-23T14:21:39.617Z,7.27
2023-05-23T14:24:10.979Z,7.27
2023-05-23T14:26:40.108Z,7.80
2023-05-23T14:29:14.806Z,7.87
2023-05-23T14:31:44.246Z,7.87
2023-05-23T14:34:17.550Z,8.10
2023-05-23T14:36:48.275Z,8.50
2023-05-23T14:39:18.283Z,8.17
2023-05-23T14:41:51.455Z,8.40
2023-05-23T14:44:23.506Z,8.57
2023-05-23T14:46:54.933Z,8.70
2023-05-23T14:49:25.387Z,8.73
2023-05-23T14:51:56.749Z,8.57
2023-05-23T14:54:25.309Z,8.83
2023-05-23T14:56:56.706Z,9.03
2023-05-23T14:59:31.097Z,8.93
2023-05-23T15:02:07.524Z,8.97
2023-05-23T15:04:44.128Z,10.20
2023-05-23T15:07:17.540Z,9.30
2023-05-23T15:09:49.832Z,9.07
2023-05-23T15:12:21.374Z,9.20
2023-05-23T15:14:54.334Z,8.53
2023-05-23T15:17:32.520Z,8.90
2023-05-23T15:20:06.007Z,8.73
2023-05-23T15:22:39.894Z,8.67
2023-05-23T15:25:13.147Z,9.33
2023-05-23T15:27:48.765Z,9.20
2023-05-23T15:30:18.401Z,9.13
2023-05-23T15:32:50.525Z,8.97
2023-05-23T15:35:22.208Z,8.80
2023-05-23T15:37:53.724Z,8.43
2023-05-23T15:40:24.214Z,8.57
2023-05-23T15:42:55.279Z,8.47
2023-05-23T15:45:27.120Z,8.50
2023-05-23T15:47:57.117Z,8.43
2023-05-23T15:50:26.240Z,8.43
2023-05-23T15:52:55.784Z,8.37
2023-05-23T15:55:31.382Z,8.37
2023-05-23T15:57:59.574Z,8.70
2023-05-23T16:00:30.207Z,8.27
2023-05-23T16:03:01.098Z,8.17
2023-05-23T16:05:31.029Z,8.73
2023-05-23T16:08:02.508Z,9.00
2023-05-23T16:10:31.545Z,8.77
2023-05-23T16:13:02.565Z,9.20
2023-05-23T16:15:32.627Z,8.30
2023-05-23T16:18:04.304Z,9.17
2023-05-23T16:20:37.667Z,9.33
2023-05-23T16:23:08.882Z,9.27
2023-05-23T16:25:40.995Z,9.10
2023-05-23T16:28:09.328Z,8.93
2023-05-23T16:30:38.803Z,8.93
2023-05-23T16:33:09.818Z,8.77
2023-05-23T16:35:41.082Z,9.07
2023-05-23T16:38:15.043Z,8.80
2023-05-23T16:40:47.090Z,8.80
2023-05-23T16:43:17.636Z,9.63
2023-05-23T16:45:49.624Z,8.43
2023-05-23T16:48:20.887Z,8.63
2023-05-23T16:51:06.636Z,8.00
2023-05-23T16:53:34.294Z,8.70
2023-05-23T16:56:03.260Z,8.50
2023-05-23T16:58:37.208Z,8.43
2023-05-23T17:01:05.030Z,8.50
2023-05-23T17:03:35.139Z,8.17
2023-05-23T17:06:09.679Z,8.37
2023-05-23T17:08:41.018Z,8.93
2023-05-23T17:11:12.214Z,8.43
2023-05-23T17:13:41.962Z,7.83
2023-05-23T17:16:14.309Z,8.33
2023-05-23T17:18:44.959Z,8.40
2023-05-23T17:21:13.471Z,7.80
2023-05-23T17:23:44.505Z,8.20
2023-05-23T17:26:16.655Z,8.43
2023-05-23T17:28:46.153Z,7.73
2023-05-23T17:31:15.073Z,7.83
2023-05-23T17:33:48.076Z,7.63
2023-05-23T17:36:22.612Z,7.97
2023-05-23T17:38:58.228Z,7.80
2023-05-23T17:41:30.268Z,7.83
2023-05-23T17:44:08.375Z,8.57
2023-05-23T17:46:36.156Z,8.10
2023-05-23T17:49:13.700Z,8.17
2023-05-23T17:51:44.217Z,7.93
2023-05-23T17:54:15.760Z,7.57
2023-05-23T17:56:48.800Z,8.17
2023-05-23T17:59:23.491Z,8.10
2023-05-23T18:01:57.275Z,8.30
2023-05-23T18:05:31.705Z,8.23
2023-05-23T18:08:33.448Z,8.23
2023-05-23T18:11:06.270Z,8.63
2023-05-23T18:20:53.742Z,8.37
2023-05-23T18:23:25.393Z,8.77
2023-05-23T18:25:59.247Z,8.67
2023-05-23T18:28:30.134Z,8.90
2023-05-23T18:31:02.662Z,9.17
2023-05-23T18:33:37.562Z,8.67
2023-05-23T18:36:14.768Z,9.40
2023-05-23T18:38:45.181Z,9.90
2023-05-23T18:41:16.005Z,10.33
2023-05-23T18:43:46.855Z,9.57
2023-05-23T18:46:17.282Z,9.47
2023-05-23T18:48:53.001Z,9.40
2023-05-23T18:51:31.310Z,9.50
2023-05-23T18:54:02.477Z,9.57
2023-05-23T18:56:31.177Z,8.97
2023-05-23T18:59:01.598Z,9.60
2023-05-23T19:01:31.191Z,10.47
2023-05-23T19:04:10.044Z,9.30
2023-05-23T19:06:52.236Z,9.60
2023-05-23T19:09:23.769Z,9.47
2023-05-23T19:11:56.853Z,9.77
2023-05-23T19:14:30.539Z,9.53
2023-05-23T19:17:02.775Z,9.43
2023-05-23T19:19:33.289Z,9.57
2023-05-23T19:22:04.252Z,10.30
2023-05-23T19:24:37.725Z,9.27
2023-05-23T19:27:13.941Z,9.90
2023-05-23T19:29:45.004Z,9.93
2023-05-23T19:32:18.468Z,10.40
2023-05-23T19:34:53.033Z,9.90
2023-05-23T19:37:22.246Z,10.40
2023-05-23T19:39:52.222Z,9.93
2023-05-23T19:42:25.583Z,10.17
2023-05-23T19:44:55.987Z,9.77
2023-05-23T19:47:25.573Z,10.43
2023-05-23T19:49:54.623Z,9.90
2023-05-23T19:52:26.227Z,9.83
2023-05-23T19:54:58.095Z,10.07
2023-05-23T19:57:28.672Z,10.73
2023-05-23T19:59:58.993Z,10.10
2023-05-23T20:02:28.959Z,11.40
2023-05-23T20:04:59.411Z,10.50
2023-05-23T20:07:30.116Z,10.33
2023-05-23T20:09:59.621Z,10.50
2023-05-23T20:12:29.983Z,11.07
2023-05-23T20:14:58.514Z,10.57
2023-05-23T20:17:32.782Z,10.97
2023-05-23T20:20:04.543Z,11.20
2023-05-23T20:22:36.904Z,11.17
2023-05-23T20:25:09.609Z,11.33
2023-05-23T20:27:41.976Z,11.10
2023-05-23T20:30:12.049Z,10.87
2023-05-23T20:32:46.965Z,10.83
2023-05-23T20:35:18.173Z,11.37
2023-05-23T20:37:50.551Z,11.00
2023-05-23T20:40:23.151Z,10.90
2023-05-23T20:42:55.825Z,11.37
2023-05-23T20:45:25.356Z,12.13
2023-05-23T20:47:56.302Z,10.93
2023-05-23T20:50:30.093Z,11.00
2023-05-23T20:53:04.706Z,11.23
2023-05-23T20:55:36.990Z,11.00
2023-05-23T20:58:07.424Z,11.43
2023-05-23T21:00:37.092Z,10.23
2023-05-23T21:03:07.920Z,10.50
2023-05-23T21:05:37.987Z,10.80
2023-05-23T21:08:09.163Z,10.63
2023-05-23T21:10:37.308Z,11.20
2023-05-23T21:13:07.067Z,11.10
2023-05-23T21:15:37.696Z,11.40
2023-05-23T21:18:09.861Z,11.13
2023-05-23T21:20:39.081Z,11.20
2023-05-23T21:23:09.960Z,11.30
2023-05-23T21:25:38.888Z,11.00
2023-05-23T21:28:07.884Z,11.83
2023-05-23T21:30:36.212Z,10.80
2023-05-23T21:33:08.776Z,11.47
2023-05-23T21:35:41.228Z,11.57
2023-05-23T21:38:12.308Z,11.63
2023-05-23T21:40:43.914Z,10.93
2023-05-23T21:43:12.753Z,11.23
2023-05-23T21:45:44.518Z,11.13
2023-05-23T21:48:16.071Z,11.10
2023-05-23T21:50:48.180Z,11.50
2023-05-23T21:53:19.832Z,10.97
2023-05-23T21:55:50.897Z,10.40
2023-05-23T21:58:22.295Z,11.00
2023-05-23T22:00:52.681Z,10.93
2023-05-23T22:03:23.808Z,11.03
2023-05-23T22:05:55.867Z,10.53
2023-05-23T22:08:25.066Z,10.13
2023-05-23T22:10:55.596Z,10.57
2023-05-23T22:13:23.407Z,9.97
2023-05-23T22:15:54.961Z,11.00
2023-05-23T22:18:28.864Z,10.70
2023-05-23T22:20:59.927Z,10.20
2023-05-23T22:23:32.459Z,9.87
2023-05-23T22:26:04.827Z,9.87
2023-05-23T22:28:35.650Z,9.63
2023-05-23T22:31:06.678Z,9.47
2023-05-23T22:33:37.730Z,9.40
2023-05-23T22:36:07.545Z,9.97
2023-05-23T22:38:37.574Z,9.70
2023-05-23T22:41:08.704Z,9.23
2023-05-23T22:43:41.883Z,9.70
2023-05-23T22:46:13.294Z,9.23
2023-05-23T22:48:44.175Z,9.53
2023-05-23T22:51:16.816Z,9.43
2023-05-23T22:53:50.306Z,8.90
2023-05-23T22:56:18.110Z,8.80
2023-05-23T22:58:48.468Z,8.50
2023-05-23T23:01:20.028Z,8.20
2023-05-23T23:03:50.820Z,8.70
2023-05-23T23:06:23.464Z,8.40
2023-05-23T23:08:55.049Z,8.10
2023-05-23T23:11:25.684Z,8.60
2023-05-23T23:13:54.048Z,8.00
2023-05-23T23:16:25.023Z,8.20
2023-05-23T23:18:56.641Z,7.57
2023-05-23T23:21:26.361Z,7.27
2023-05-23T23:23:56.452Z,7.17
2023-05-23T23:26:28.884Z,6.97
2023-05-23T23:28:59.674Z,7.30
2023-05-23T23:31:27.728Z,7.13
2023-05-23T23:33:58.177Z,6.80
2023-05-23T23:36:28.597Z,6.77
2023-05-23T23:38:59.629Z,6.70
2023-05-23T23:41:30.453Z,7.00
2023-05-23T23:44:01.562Z,6.50
2023-05-23T23:46:33.579Z,6.87
2023-05-23T23:49:04.360Z,6.60
2023-05-23T23:51:36.005Z,6.40
2023-05-23T23:54:07.648Z,7.20
2023-05-23T23:56:35.191Z,6.73
2023-05-23T23:59:12.844Z,6.23
